createdAt,value
2018-07-28T00:07:58.200Z,91.86
2018-07-28T00:23:02.166Z,92.58
2018-07-28T00:38:06.111Z,93.63
2018-07-28T00:53:10.382Z,96.34
2018-07-28T01:08:14.267Z,94.50
2018-07-28T01:23:18.069Z,94.79
2018-07-28T01:38:21.931Z,94.38
2018-07-28T01:53:25.740Z,98.79
2018-07-28T02:08:29.567Z,100.00
2018-07-28T02:23:33.348Z,98.32
2018-07-28T02:38:37.197Z,96.76
2018-07-28T02:53:44.412Z,97.48
2018-07-28T03:08:48.220Z,99.43
2018-07-28T03:23:52.016Z,100.00
2018-07-28T03:38:56.402Z,99.49
2018-07-28T03:54:00.234Z,98.59
2018-07-28T04:09:04.597Z,93.60
2018-07-28T04:24:08.476Z,84.10
2018-07-28T04:39:13.685Z,75.90
2018-07-28T04:54:17.477Z,70.92
2018-07-28T05:09:21.294Z,63.82
2018-07-28T05:24:25.149Z,60.44
2018-07-28T05:39:29.055Z,54.26
2018-07-28T05:54:32.855Z,50.16
2018-07-28T06:09:36.708Z,50.10
2018-07-28T06:24:40.529Z,45.43
2018-07-28T06:39:44.527Z,50.61
2018-07-28T06:54:48.361Z,50.43
2018-07-28T07:09:52.276Z,46.05
2018-07-28T07:24:56.195Z,39.92
2018-07-28T07:40:00.037Z,37.32
2018-07-28T07:55:04.131Z,36.97
2018-07-28T08:10:08.021Z,34.21
2018-07-28T08:25:12.019Z,33.26
2018-07-28T08:40:15.988Z,32.83
2018-07-28T08:55:20.000Z,30.43
2018-07-28T09:10:23.846Z,32.17
2018-07-28T09:25:28.076Z,30.32
2018-07-28T09:40:31.949Z,28.44
2018-07-28T09:55:36.758Z,29.95
2018-07-28T10:10:40.928Z,31.80
2018-07-28T10:25:44.913Z,30.18
2018-07-28T10:40:49.174Z,27.48
2018-07-28T10:55:53.077Z,27.73
2018-07-28T11:10:57.022Z,29.99
2018-07-28T11:26:00.975Z,30.79
2018-07-28T11:41:15.789Z,28.73
2018-07-28T11:56:19.630Z,31.20
2018-07-28T12:11:23.517Z,30.26
2018-07-28T12:26:27.544Z,31.27
2018-07-28T12:41:31.410Z,34.05
2018-07-28T12:56:35.366Z,33.81
2018-07-28T13:11:39.385Z,33.45
2018-07-28T13:26:43.521Z,37.39
2018-07-28T13:41:47.378Z,42.05
2018-07-28T13:56:51.351Z,46.54
2018-07-28T14:11:55.229Z,49.60
2018-07-28T14:26:59.249Z,49.09
2018-07-28T14:42:03.109Z,45.53
2018-07-28T14:57:06.970Z,43.73
2018-07-28T15:12:11.050Z,44.69
2018-07-28T15:27:14.924Z,46.73
2018-07-28T15:42:18.860Z,44.17
2018-07-28T15:57:22.738Z,46.99
2018-07-28T16:12:26.591Z,46.36
2018-07-28T16:27:30.442Z,47.00
2018-07-28T16:42:34.315Z,48.65
2018-07-28T16:57:38.247Z,51.53
2018-07-28T17:12:42.196Z,54.13
2018-07-28T17:27:46.188Z,55.95
2018-07-28T17:42:50.116Z,58.47
2018-07-28T17:57:54.127Z,61.61
2018-07-28T18:12:58.140Z,64.49
2018-07-28T18:28:02.268Z,72.25
2018-07-28T18:43:06.241Z,71.08
2018-07-28T18:58:10.252Z,74.44
2018-07-28T19:13:19.678Z,90.85
2018-07-28T19:28:28.605Z,93.66
2018-07-28T19:43:32.844Z,97.13
2018-07-28T19:58:36.847Z,99.96
2018-07-28T20:13:41.148Z,99.76
2018-07-28T20:28:45.128Z,100.00
2018-07-28T20:43:49.045Z,97.81
2018-07-28T20:58:53.165Z,100.00
2018-07-28T21:13:57.064Z,100.00
2018-07-28T21:29:00.969Z,98.56
2018-07-28T21:44:05.061Z,97.68
2018-07-28T21:59:09.002Z,95.34
2018-07-28T22:14:13.061Z,93.40
2018-07-28T22:29:17.251Z,91.19
2018-07-28T22:44:21.091Z,92.06
2018-07-28T22:59:25.092Z,91.12
2018-07-28T23:14:29.056Z,91.50
2018-07-28T23:29:33.019Z,91.85
2018-07-28T23:44:36.879Z,90.32
2018-07-28T23:59:40.801Z,91.10
